Rye, NH

10:16 AM EDT on October 23, 2014 (GMT -0400)
MARITIME | Change Station
CLOSE
Current Station
Personal Weather Station
Location: Rye Beach, NH
Elevation: 42 ft
Nearby Weather Stations

Elev 42 ft 42.97 °N, 70.62 °W | Updated 1 hour ago

Light Rain
Light Rain Mist
51 °F
Feels Like 51 °F
N
53
Wind Variable Wind from NNE
Gusts 60.0 mph

Today
High -- | Low -- °F
--% Chance of Precip.
Yesterday
High -- | Low -- °F
Precip. -- in
7:05 AM 5:47 PM
Waning Crescent, 0% visible
Pressure 29.68 in
Visibility 1.5 miles
Clouds Scattered Clouds 200 ft
Overcast 800 ft
Dew Point 51 °F
Humidity 99%
Rainfall -999.00 in
Snow Depth Not available.
UV 1 out of 12
Pollen .10 out of 12
Ozone Good
Flu Activity Local Activity
SPECI KPSM 231402Z 02018G27KT 340V050 1 1/2SM -RA BR SCT002 OVC008 10/09 A2968 RMK AO2A

More Conditions Fewer Conditions

Pressure 29.68 in
Visibility 1.5 miles
Clouds Scattered Clouds 200 ft
Overcast 800 ft
Dew Point 51 °F
Humidity 99%
Rainfall -999.00 in
Snow Depth Not available.
UV 1 out of 12
Pollen .10 out of 12
Ozone Good
Flu Activity Local Activity
SPECI KPSM 231402Z 02018G27KT 340V050 1 1/2SM -RA BR SCT002 OVC008 10/09 A2968 RMK AO2A

More Conditions Fewer Conditions

10-Day Weather Forecast

Almanac

Astronomy

Oct. 23, 2014 Rise Set
Actual Time 7:05 AM EDT 5:47 PM EDT
Civil Twilight 6:36 AM EDT 6:16 PM EDT
Nautical Twilight 6:03 AM EDT 6:49 PM EDT
Astronomical Twilight 5:30 AM EDT 7:22 PM EDT
Moon 6:41 AM EDT 5:47 PM EDT
Length of Visible Light 11h 39m
Length of Day
10h 41m
Tomorrow will be 2m 43s shorter.
Waning Crescent, 0% of the Moon is Illuminated
Today
Waning Crescent
Oct 23
New
Oct 30
First Quarter
Nov 6
Full
Nov 14
Last Quarter

Today's Extremes

State Highs State Lows

Community

WunderPhotos

Upload Photos

1,764,256 photos uploaded!

Nearby

Air Quality

  Air Quality AQ Index Pollutant
Yesterday Good
OZONE
Yesterday Good
PM2.5
Current Good
OZONE
Thursday Good
PM2.5
Thursday Good
OZONE

Snow Depth

Station Depth Elevation
No new snow has been reported.

Earthquake Activity

City Distance Mag. Time & Date
No recent earthquake activity has been reported nearby.
Minimum magnitude displayed is 2.5.

Coastal Water Temperatures

Place Temperature
Wells, ME 51.1 °F
Portland, ME 54.0 °F

Nearby Weather Stations